createdAt,value
2018-04-27T00:00:15.191Z,91.00
2018-04-27T00:02:43.478Z,91.00
2018-04-27T00:05:11.783Z,91.00
2018-04-27T00:07:39.967Z,91.00
2018-04-27T00:10:08.567Z,91.10
2018-04-27T00:12:36.842Z,91.20
2018-04-27T00:15:05.885Z,91.20
2018-04-27T00:17:34.219Z,91.10
2018-04-27T00:20:03.213Z,91.10
2018-04-27T00:22:32.355Z,90.90
2018-04-27T00:25:00.670Z,90.80
2018-04-27T00:27:28.897Z,90.90
2018-04-27T00:29:57.175Z,90.90
2018-04-27T00:32:25.466Z,90.90
2018-04-27T00:34:53.732Z,91.00
2018-04-27T00:37:22.417Z,91.00
2018-04-27T00:39:50.747Z,91.00
2018-04-27T00:42:19.433Z,91.10
2018-04-27T00:44:48.490Z,91.00
2018-04-27T00:47:16.726Z,90.90
2018-04-27T00:49:45.017Z,91.00
2018-04-27T00:52:13.263Z,90.90
2018-04-27T00:54:42.265Z,90.90
2018-04-27T00:57:10.513Z,90.90
2018-04-27T00:59:39.533Z,90.80
2018-04-27T01:02:07.798Z,90.70
2018-04-27T01:04:36.806Z,90.80
2018-04-27T01:07:05.071Z,90.80
2018-04-27T01:09:33.415Z,90.90
2018-04-27T01:12:01.654Z,90.90
2018-04-27T01:14:29.898Z,91.00
2018-04-27T01:16:58.151Z,91.00
2018-04-27T01:19:27.327Z,91.30
2018-04-27T01:21:55.550Z,91.20
2018-04-27T01:24:23.825Z,91.10
2018-04-27T01:26:52.065Z,90.90
2018-04-27T01:29:21.078Z,90.90
2018-04-27T01:31:49.345Z,90.90
2018-04-27T01:34:17.691Z,91.00
2018-04-27T01:36:45.936Z,91.00
2018-04-27T01:39:14.183Z,90.90
2018-04-27T01:41:42.434Z,90.90
2018-04-27T01:44:11.445Z,91.20
2018-04-27T01:46:39.713Z,91.20
2018-04-27T01:49:08.710Z,91.00
2018-04-27T01:51:36.960Z,91.00
2018-04-27T01:54:05.989Z,90.80
2018-04-27T01:56:34.289Z,90.80
2018-04-27T01:59:02.529Z,90.90
2018-04-27T02:01:30.813Z,90.90
2018-04-27T02:03:59.114Z,90.90
2018-04-27T02:06:27.451Z,90.90
2018-04-27T02:08:55.660Z,90.90
2018-04-27T02:11:23.887Z,90.80
2018-04-27T02:13:53.071Z,90.80
2018-04-27T02:16:21.322Z,90.80
2018-04-27T02:18:49.613Z,90.70
2018-04-27T02:21:17.866Z,90.70
2018-04-27T02:23:46.113Z,90.60
2018-04-27T02:26:14.358Z,90.60
2018-04-27T02:28:43.546Z,90.40
2018-04-27T02:31:12.539Z,90.30
2018-04-27T02:33:41.561Z,90.10
2018-04-27T02:36:09.799Z,90.10
2018-04-27T02:38:38.838Z,90.10
2018-04-27T02:41:07.087Z,90.10
2018-04-27T02:43:36.154Z,90.10
2018-04-27T02:46:04.420Z,90.10
2018-04-27T02:48:32.716Z,90.10
2018-04-27T02:51:01.726Z,90.10
2018-04-27T02:53:30.238Z,90.10
2018-04-27T02:55:58.499Z,90.20
2018-04-27T02:58:26.752Z,90.10
2018-04-27T03:00:55.006Z,90.20
2018-04-27T03:03:24.191Z,90.20
2018-04-27T03:05:52.428Z,90.20
2018-04-27T03:08:20.743Z,90.20
2018-04-27T03:10:49.015Z,90.30
2018-04-27T03:13:17.260Z,90.30
2018-04-27T03:15:45.510Z,90.40
2018-04-27T03:18:13.841Z,90.40
2018-04-27T03:20:42.106Z,90.50
2018-04-27T03:23:10.382Z,90.50
2018-04-27T03:25:38.631Z,90.50
2018-04-27T03:28:06.878Z,90.60
2018-04-27T03:30:35.218Z,90.60
2018-04-27T03:33:04.308Z,90.70
2018-04-27T03:35:32.547Z,90.60
2018-04-27T03:38:00.798Z,90.70
2018-04-27T03:40:29.058Z,90.80
2018-04-27T03:42:57.663Z,90.80
2018-04-27T03:45:26.000Z,90.90
2018-04-27T03:47:54.250Z,91.00
2018-04-27T03:50:22.647Z,91.00
2018-04-27T03:52:50.915Z,90.90
2018-04-27T03:55:19.201Z,91.00
2018-04-27T03:57:47.475Z,91.10
2018-04-27T04:00:29.197Z,91.10
2018-04-27T04:03:10.030Z,91.20
2018-04-27T04:05:38.265Z,91.20
2018-04-27T04:08:06.551Z,91.30
2018-04-27T04:10:34.792Z,91.40
2018-04-27T04:13:03.100Z,91.40
2018-04-27T04:15:31.338Z,91.40
2018-04-27T04:17:59.675Z,91.40
2018-04-27T04:20:27.937Z,91.40
2018-04-27T04:22:56.249Z,91.30
2018-04-27T04:25:25.280Z,91.20
2018-04-27T04:27:53.525Z,91.20
2018-04-27T04:30:21.869Z,91.30
2018-04-27T04:32:50.246Z,91.30
2018-04-27T04:35:18.520Z,91.30
2018-04-27T04:37:46.798Z,91.30
2018-04-27T04:40:15.073Z,91.30
2018-04-27T04:42:43.309Z,91.00
2018-04-27T04:45:11.581Z,90.80
2018-04-27T04:47:41.390Z,90.50
2018-04-27T04:50:10.198Z,90.50
2018-04-27T04:52:38.557Z,90.30
2018-04-27T04:55:07.076Z,90.00
2018-04-27T04:57:35.349Z,90.00
2018-04-27T05:00:03.618Z,89.80
2018-04-27T05:02:31.900Z,89.60
2018-04-27T05:05:00.210Z,88.70
2018-04-27T05:07:29.255Z,87.60
2018-04-27T05:09:57.505Z,87.50
2018-04-27T05:12:25.819Z,87.60
2018-04-27T05:14:54.095Z,87.40
2018-04-27T05:17:22.572Z,86.60
2018-04-27T05:19:54.138Z,86.00
2018-04-27T05:22:23.144Z,83.60
2018-04-27T05:24:51.525Z,83.70
2018-04-27T05:27:19.764Z,83.70
2018-04-27T05:29:48.116Z,83.10
2018-04-27T05:32:17.065Z,83.80
2018-04-27T05:34:45.387Z,82.90
2018-04-27T05:37:13.649Z,83.30
2018-04-27T05:39:42.880Z,83.30
2018-04-27T05:42:11.911Z,83.00
2018-04-27T05:44:40.356Z,82.80
2018-04-27T05:47:08.578Z,82.00
2018-04-27T05:49:36.950Z,82.20
2018-04-27T05:52:05.287Z,80.70
2018-04-27T05:54:33.571Z,79.30
2018-04-27T05:57:02.597Z,78.20
2018-04-27T05:59:30.869Z,78.00
2018-04-27T06:01:59.194Z,76.70
2018-04-27T06:04:27.494Z,76.40
2018-04-27T06:06:56.510Z,74.20
2018-04-27T06:09:24.813Z,74.10
2018-04-27T06:11:53.129Z,73.70
2018-04-27T06:14:21.445Z,73.00
2018-04-27T06:16:49.826Z,71.30
2018-04-27T06:19:18.082Z,71.00
2018-04-27T06:21:46.380Z,69.80
2018-04-27T06:24:14.611Z,70.80
2018-04-27T06:26:43.692Z,71.60
2018-04-27T06:29:11.916Z,71.50
2018-04-27T06:31:40.182Z,72.50
2018-04-27T06:34:08.444Z,73.70
2018-04-27T06:36:37.482Z,73.70
2018-04-27T06:39:05.783Z,73.60
2018-04-27T06:41:34.058Z,73.40
2018-04-27T06:44:02.336Z,73.50
2018-04-27T06:46:30.590Z,74.20
2018-04-27T06:48:59.049Z,74.50
2018-04-27T06:51:27.444Z,76.20
2018-04-27T06:53:55.744Z,76.00
2018-04-27T06:56:24.018Z,76.20
2018-04-27T06:58:52.317Z,75.60
2018-04-27T07:01:20.570Z,76.30
2018-04-27T07:03:49.589Z,73.80
2018-04-27T07:06:17.973Z,73.80
2018-04-27T07:08:46.275Z,73.90
2018-04-27T07:11:14.539Z,72.60
2018-04-27T07:13:42.838Z,73.20
2018-04-27T07:16:11.089Z,73.80
2018-04-27T07:18:39.366Z,74.60
2018-04-27T07:21:07.692Z,73.70
2018-04-27T07:23:37.441Z,71.40
2018-04-27T07:26:05.750Z,71.30
2018-04-27T07:28:34.065Z,70.30
2018-04-27T07:31:03.139Z,69.60
2018-04-27T07:33:32.183Z,69.60
2018-04-27T07:36:01.459Z,70.10
2018-04-27T07:38:30.467Z,68.20
2018-04-27T07:40:58.802Z,68.20
2018-04-27T07:43:27.047Z,69.10
2018-04-27T07:45:55.304Z,68.70
2018-04-27T07:48:23.551Z,68.10
2018-04-27T07:50:52.587Z,65.00
2018-04-27T07:53:20.852Z,64.90
2018-04-27T07:55:49.094Z,65.10
2018-04-27T07:58:18.096Z,66.00
2018-04-27T08:00:46.434Z,66.00
2018-04-27T08:03:14.646Z,64.00
2018-04-27T08:05:42.948Z,64.20
2018-04-27T08:08:11.257Z,64.10
2018-04-27T08:10:40.351Z,61.00
2018-04-27T08:13:08.594Z,60.90
2018-04-27T08:15:36.923Z,63.00
2018-04-27T08:18:05.255Z,61.40
2018-04-27T08:20:33.490Z,62.20
2018-04-27T08:23:01.771Z,61.80
2018-04-27T08:25:30.104Z,63.20
2018-04-27T08:27:58.383Z,63.50
2018-04-27T08:30:26.698Z,61.00
2018-04-27T08:32:55.078Z,60.70
2018-04-27T08:35:23.341Z,61.90
2018-04-27T08:37:51.598Z,62.10
2018-04-27T08:40:20.681Z,60.80
2018-04-27T08:42:49.776Z,59.70
2018-04-27T08:45:18.050Z,59.70
2018-04-27T08:47:46.314Z,60.00
2018-04-27T08:50:15.361Z,61.00
2018-04-27T08:52:43.689Z,60.90
2018-04-27T08:55:11.944Z,60.40
2018-04-27T08:57:41.130Z,61.50
2018-04-27T09:00:09.435Z,61.40
2018-04-27T09:02:37.920Z,60.90
2018-04-27T09:05:06.233Z,60.50
2018-04-27T09:07:34.670Z,61.50
2018-04-27T09:10:02.962Z,62.00
2018-04-27T09:12:32.046Z,59.50
2018-04-27T09:15:00.422Z,59.50
2018-04-27T09:17:30.041Z,60.40
2018-04-27T09:19:58.503Z,60.20
2018-04-27T09:22:26.787Z,57.90
2018-04-27T09:24:55.463Z,58.60
2018-04-27T09:27:23.694Z,57.60
2018-04-27T09:29:52.014Z,57.40
2018-04-27T09:32:21.232Z,57.70
2018-04-27T09:34:49.489Z,57.10
2018-04-27T09:37:17.746Z,57.40
2018-04-27T09:39:46.033Z,56.50
2018-04-27T09:42:14.279Z,57.10
2018-04-27T09:44:42.577Z,56.40
2018-04-27T09:47:10.961Z,56.60
2018-04-27T09:49:39.340Z,55.80
2018-04-27T09:52:07.574Z,56.10
2018-04-27T09:54:35.857Z,55.90
2018-04-27T09:57:04.170Z,56.30
2018-04-27T09:59:33.358Z,56.10
2018-04-27T10:02:01.602Z,55.70
2018-04-27T10:04:30.034Z,55.20
2018-04-27T10:06:59.066Z,54.00
2018-04-27T10:09:27.313Z,54.00
2018-04-27T10:11:55.619Z,54.40
2018-04-27T10:14:24.050Z,53.00
2018-04-27T10:16:53.102Z,51.80
2018-04-27T10:19:21.503Z,51.70
2018-04-27T10:21:49.776Z,53.90
2018-04-27T10:24:18.033Z,52.20
2018-04-27T10:26:46.310Z,49.80
2018-04-27T10:29:14.694Z,49.20
2018-04-27T10:31:43.061Z,48.80
2018-04-27T10:34:11.312Z,49.30
2018-04-27T10:36:39.611Z,49.70
2018-04-27T10:39:07.845Z,47.40
2018-04-27T10:41:36.105Z,48.10
2018-04-27T10:44:05.150Z,48.20
2018-04-27T10:46:33.459Z,48.10
2018-04-27T10:49:01.690Z,47.90
2018-04-27T10:51:30.584Z,48.30
2018-04-27T10:54:00.017Z,46.90
2018-04-27T10:56:28.225Z,47.40
2018-04-27T10:58:56.502Z,47.60
2018-04-27T11:01:24.800Z,47.20
2018-04-27T11:03:54.035Z,46.80
2018-04-27T11:06:22.288Z,46.80
2018-04-27T11:08:50.601Z,47.20
2018-04-27T11:11:19.693Z,45.30
2018-04-27T11:13:47.948Z,45.30
2018-04-27T11:16:16.189Z,44.40
2018-04-27T11:18:44.509Z,44.80
2018-04-27T11:21:12.792Z,44.40
2018-04-27T11:23:41.060Z,44.80
2018-04-27T11:26:09.333Z,43.70
2018-04-27T11:28:37.593Z,44.40
2018-04-27T11:31:05.877Z,43.40
2018-04-27T11:33:34.111Z,45.10
2018-04-27T11:36:02.433Z,43.10
2018-04-27T11:38:30.658Z,43.10
2018-04-27T11:40:59.097Z,43.90
2018-04-27T11:43:28.147Z,43.60
2018-04-27T11:45:56.401Z,43.50
2018-04-27T11:48:24.655Z,42.30
2018-04-27T11:50:52.938Z,43.20
2018-04-27T11:53:21.994Z,44.00
2018-04-27T11:55:50.269Z,44.00
2018-04-27T11:58:18.579Z,42.90
2018-04-27T12:00:46.991Z,41.40
2018-04-27T12:03:15.241Z,42.10
2018-04-27T12:05:43.534Z,43.60
2018-04-27T12:08:11.822Z,43.50
2018-04-27T12:10:40.058Z,41.20
2018-04-27T12:13:09.317Z,41.20
2018-04-27T12:15:37.526Z,40.40
2018-04-27T12:18:05.855Z,42.60
2018-04-27T12:20:34.126Z,40.20
2018-04-27T12:23:02.521Z,40.00
2018-04-27T12:25:30.802Z,42.30
2018-04-27T12:28:00.094Z,39.50
2018-04-27T12:30:28.361Z,39.40
2018-04-27T12:32:56.666Z,40.00
2018-04-27T12:35:25.250Z,40.20
2018-04-27T12:37:54.297Z,41.40
2018-04-27T12:40:22.533Z,41.20
2018-04-27T12:42:51.598Z,40.00
2018-04-27T12:45:19.822Z,39.90
2018-04-27T12:47:48.243Z,41.80
2018-04-27T12:50:16.649Z,41.10
2018-04-27T12:52:45.647Z,40.50
2018-04-27T12:55:13.894Z,40.50
2018-04-27T12:57:42.189Z,39.40
2018-04-27T13:00:10.537Z,40.20
2018-04-27T13:02:39.134Z,38.70
2018-04-27T13:05:07.410Z,38.80
2018-04-27T13:07:37.290Z,40.40
2018-04-27T13:10:05.582Z,40.40
2018-04-27T13:12:33.922Z,38.90
2018-04-27T13:15:03.186Z,37.10
2018-04-27T13:17:32.294Z,37.60
2018-04-27T13:20:00.571Z,37.50
2018-04-27T13:22:28.906Z,38.50
2018-04-27T13:24:57.970Z,37.30
2018-04-27T13:27:26.245Z,37.20
2018-04-27T13:29:54.513Z,38.00
2018-04-27T13:32:22.876Z,37.60
2018-04-27T13:34:51.131Z,37.50
2018-04-27T13:37:20.141Z,39.60
2018-04-27T13:39:48.455Z,39.60
2018-04-27T13:42:16.789Z,37.30
2018-04-27T13:44:45.039Z,38.50
2018-04-27T13:47:14.209Z,38.40
2018-04-27T13:49:42.489Z,38.30
2018-04-27T13:52:11.561Z,39.70
2018-04-27T13:54:39.805Z,38.90
2018-04-27T13:57:08.142Z,38.30
2018-04-27T13:59:37.167Z,40.20
2018-04-27T14:02:05.594Z,40.10
2018-04-27T14:04:34.649Z,38.90
2018-04-27T14:07:03.013Z,38.80
2018-04-27T14:09:31.497Z,38.40
2018-04-27T14:12:00.483Z,39.00
2018-04-27T14:14:28.742Z,38.90
2018-04-27T14:16:57.737Z,39.20
2018-04-27T14:19:26.816Z,37.90
2018-04-27T14:21:55.819Z,37.40
2018-04-27T14:24:25.705Z,39.10
2018-04-27T14:26:53.994Z,39.00
2018-04-27T14:29:23.792Z,37.80
2018-04-27T14:31:52.074Z,37.80
2018-04-27T14:34:21.841Z,38.20
2018-04-27T14:36:50.173Z,38.10
2018-04-27T14:39:19.196Z,37.10
2018-04-27T14:41:47.451Z,37.00
2018-04-27T14:44:15.793Z,36.90
2018-04-27T14:46:44.851Z,38.30
2018-04-27T14:49:13.276Z,38.10
2018-04-27T14:51:41.637Z,39.00
2018-04-27T14:54:09.951Z,39.60
2018-04-27T14:56:38.298Z,37.90
2018-04-27T14:59:06.579Z,38.80
2018-04-27T15:01:35.042Z,38.00
2018-04-27T15:04:03.327Z,37.80
2018-04-27T15:06:32.409Z,38.60
2018-04-27T15:09:01.519Z,38.60
2018-04-27T15:11:29.765Z,38.00
2018-04-27T15:13:58.076Z,38.20
2018-04-27T15:16:27.137Z,39.70
2018-04-27T15:18:55.389Z,39.70
2018-04-27T15:21:23.663Z,39.60
2018-04-27T15:23:51.930Z,39.60
2018-04-27T15:26:20.233Z,38.50
2018-04-27T15:28:48.610Z,38.20
2018-04-27T15:31:18.069Z,38.20
2018-04-27T15:33:47.142Z,37.40
2018-04-27T15:36:15.414Z,37.30
2018-04-27T15:38:44.427Z,39.50
2018-04-27T15:41:12.879Z,38.70
2018-04-27T15:43:41.895Z,37.10
2018-04-27T15:46:10.157Z,37.10
2018-04-27T15:48:39.179Z,37.50
2018-04-27T15:51:07.453Z,37.50
2018-04-27T15:53:35.733Z,37.40
2018-04-27T15:56:04.730Z,38.20
2018-04-27T15:58:33.010Z,38.10
2018-04-27T16:01:01.263Z,36.30
2018-04-27T16:03:29.534Z,36.20
2018-04-27T16:05:58.814Z,35.90
2018-04-27T16:08:27.033Z,36.90
2018-04-27T16:10:55.319Z,37.20
2018-04-27T16:16:30.051Z,35.60
2018-04-27T16:18:59.090Z,35.40
2018-04-27T16:21:27.318Z,36.30
2018-04-27T16:23:55.888Z,36.50
2018-04-27T16:26:25.970Z,35.90
2018-04-27T16:28:55.075Z,35.80
2018-04-27T16:31:23.537Z,36.00
2018-04-27T16:33:52.598Z,36.80
2018-04-27T16:36:20.992Z,36.00
2018-04-27T16:38:49.258Z,36.40
2018-04-27T16:41:17.575Z,36.40
2018-04-27T16:43:46.611Z,36.80
2018-04-27T16:46:14.873Z,36.80
2018-04-27T16:48:43.331Z,37.00
2018-04-27T16:51:11.565Z,37.60
2018-04-27T16:53:39.977Z,38.20
2018-04-27T16:56:08.332Z,37.40
2018-04-27T16:58:36.710Z,38.00
2018-04-27T17:01:05.756Z,38.40
2018-04-27T17:03:34.224Z,38.30
2018-04-27T17:06:02.433Z,38.10
2018-04-27T17:08:30.706Z,38.20
2018-04-27T17:10:58.953Z,38.40
2018-04-27T17:13:27.214Z,38.80
2018-04-27T17:15:55.522Z,39.00
2018-04-27T17:18:23.777Z,38.40
2018-04-27T17:20:52.827Z,39.00
2018-04-27T17:23:21.150Z,39.00
2018-04-27T17:25:50.279Z,39.20
2018-04-27T17:28:18.714Z,39.20
2018-04-27T17:30:47.371Z,39.50
2018-04-27T17:33:16.385Z,39.80
2018-04-27T17:35:44.732Z,39.60
2018-04-27T17:38:13.026Z,40.30
2018-04-27T17:40:41.344Z,40.70
2018-04-27T17:43:09.593Z,40.50
2018-04-27T17:45:37.942Z,40.70
2018-04-27T17:48:06.198Z,41.00
2018-04-27T17:50:34.697Z,42.20
2018-04-27T17:53:03.819Z,41.20
2018-04-27T17:55:32.093Z,40.90
2018-04-27T17:58:01.916Z,40.70
2018-04-27T18:00:30.155Z,40.60
2018-04-27T18:02:58.413Z,40.80
2018-04-27T18:05:26.848Z,41.20
2018-04-27T18:07:55.186Z,41.80
2018-04-27T18:10:23.547Z,41.60
2018-04-27T18:12:51.785Z,42.00
2018-04-27T18:15:20.246Z,42.00
2018-04-27T18:17:48.620Z,41.90
2018-04-27T18:20:16.850Z,42.10
2018-04-27T18:22:45.168Z,42.60
2018-04-27T18:25:13.458Z,42.50
2018-04-27T18:27:41.810Z,43.00
2018-04-27T18:30:10.039Z,42.70
2018-04-27T18:32:39.276Z,43.60
2018-04-27T18:35:08.286Z,44.30
2018-04-27T18:37:36.577Z,44.30
2018-04-27T18:40:04.892Z,43.60
2018-04-27T18:42:33.171Z,43.60
2018-04-27T18:45:02.232Z,44.60
2018-04-27T18:47:32.025Z,43.70
2018-04-27T18:50:00.314Z,43.70
2018-04-27T18:52:28.831Z,43.90
2018-04-27T18:54:57.645Z,45.00
2018-04-27T18:57:25.998Z,43.60
2018-04-27T18:59:55.113Z,44.20
2018-04-27T19:02:24.288Z,46.10
2018-04-27T19:04:52.704Z,46.10
2018-04-27T19:07:21.754Z,46.10
2018-04-27T19:09:51.563Z,47.90
2018-04-27T19:12:19.835Z,47.30
2018-04-27T19:14:48.127Z,46.70
2018-04-27T19:17:16.423Z,45.90
2018-04-27T19:19:44.673Z,47.20
2018-04-27T19:22:17.650Z,47.10
2018-04-27T19:24:46.755Z,47.20
2018-04-27T19:27:15.195Z,47.50
2018-04-27T19:29:43.506Z,46.90
2018-04-27T19:32:12.631Z,47.50
2018-04-27T19:34:41.788Z,48.30
2018-04-27T19:37:10.072Z,48.20
2018-04-27T19:39:39.101Z,48.50
2018-04-27T19:42:07.449Z,48.50
2018-04-27T19:44:36.540Z,47.90
2018-04-27T19:47:04.846Z,47.80
2018-04-27T19:49:33.246Z,48.20
2018-04-27T19:52:01.466Z,48.80
2018-04-27T19:54:30.512Z,49.10
2018-04-27T19:56:58.789Z,49.10
2018-04-27T19:59:27.050Z,49.00
2018-04-27T20:01:55.333Z,49.10
2018-04-27T20:04:23.586Z,49.30
2018-04-27T20:06:51.848Z,49.60
2018-04-27T20:09:20.200Z,49.10
2018-04-27T20:11:48.488Z,51.20
2018-04-27T20:14:28.725Z,52.60
2018-04-27T20:17:03.601Z,53.50
2018-04-27T20:19:34.494Z,54.30
2018-04-27T20:22:21.614Z,54.20
2018-04-27T20:24:49.898Z,53.10
2018-04-27T20:27:18.931Z,54.20
2018-04-27T20:29:48.071Z,55.50
2018-04-27T20:32:16.334Z,55.50
2018-04-27T20:34:46.125Z,54.90
2018-04-27T20:37:14.437Z,54.80
2018-04-27T20:39:42.655Z,55.20
2018-04-27T20:42:10.945Z,56.00
2018-04-27T20:44:39.226Z,54.50
2018-04-27T20:47:07.589Z,54.60
2018-04-27T20:49:36.762Z,56.40
2018-04-27T20:52:05.214Z,54.50
2018-04-27T20:54:34.400Z,54.50
2018-04-27T20:57:03.672Z,54.40
2018-04-27T20:59:31.953Z,57.30
2018-04-27T21:02:00.250Z,58.90
2018-04-27T21:04:28.514Z,60.00
2018-04-27T21:06:56.880Z,59.90
2018-04-27T21:09:25.180Z,61.20
2018-04-27T21:11:53.444Z,61.30
2018-04-27T21:14:21.739Z,61.20
2018-04-27T21:16:50.210Z,61.00
2018-04-27T21:19:19.238Z,61.80
2018-04-27T21:21:47.496Z,61.70
2018-04-27T21:24:15.786Z,61.50
2018-04-27T21:26:44.122Z,62.80
2018-04-27T21:29:20.255Z,64.10
2018-04-27T21:31:48.560Z,64.10
2018-04-27T21:34:17.296Z,65.10
2018-04-27T21:36:47.304Z,65.10
2018-04-27T21:39:16.591Z,65.10
2018-04-27T21:41:49.097Z,66.20
2018-04-27T21:44:23.342Z,66.20
2018-04-27T21:46:53.133Z,66.80
2018-04-27T21:49:25.248Z,67.40
2018-04-27T21:51:54.534Z,67.30
2018-04-27T21:54:23.837Z,67.50
2018-04-27T21:57:12.906Z,68.00
2018-04-27T21:59:46.055Z,68.50
2018-04-27T22:02:16.373Z,68.40
2018-04-27T22:04:44.693Z,68.80
2018-04-27T22:07:18.909Z,68.50
2018-04-27T22:09:53.118Z,68.20
2018-04-27T22:12:22.246Z,68.50
2018-04-27T22:14:50.508Z,68.90
2018-04-27T22:17:28.562Z,68.80
2018-04-27T22:20:11.702Z,68.80
2018-04-27T22:22:40.803Z,68.90
2018-04-27T22:25:20.772Z,68.70
2018-04-27T22:27:50.760Z,69.10
2018-04-27T22:30:31.069Z,69.10
2018-04-27T22:32:59.333Z,69.30
2018-04-27T22:35:34.734Z,69.00
2018-04-27T22:38:03.194Z,68.90
2018-04-27T22:40:38.251Z,68.30
2018-04-27T22:43:17.858Z,67.10
2018-04-27T22:48:44.121Z,66.70
2018-04-27T22:51:14.225Z,66.30
2018-04-27T22:53:43.553Z,65.90
2018-04-27T22:59:08.889Z,65.30
2018-04-27T23:01:37.401Z,65.30
2018-04-27T23:04:05.723Z,65.40
2018-04-27T23:06:34.081Z,65.80
2018-04-27T23:09:02.324Z,65.70
2018-04-27T23:11:32.064Z,64.60
2018-04-27T23:14:19.045Z,64.60
2018-04-27T23:16:49.737Z,64.80
2018-04-27T23:19:17.985Z,64.70
2018-04-27T23:22:00.938Z,64.20
2018-04-27T23:24:29.160Z,64.00
2018-04-27T23:26:59.020Z,64.10
2018-04-27T23:29:28.040Z,64.00
2018-04-27T23:31:56.338Z,63.90
2018-04-27T23:34:24.615Z,64.00
2018-04-27T23:36:53.799Z,63.90
2018-04-27T23:39:22.061Z,63.70
2018-04-27T23:41:50.339Z,63.80
2018-04-27T23:44:19.346Z,64.00
2018-04-27T23:46:47.600Z,64.00
2018-04-27T23:49:16.619Z,64.40
2018-04-27T23:51:46.678Z,64.40
2018-04-27T23:54:14.896Z,64.10
2018-04-27T23:56:45.829Z,64.10
2018-04-27T23:59:20.946Z,63.90
